Time;durP1;ratioP1;P1;durP2;ratioP2;P2;SDS_P1;SDS_P2;PMS_P1;PMS_P2;Temp;Humidity;BMP_temperature;BMP_pressure;BME280_temperature;BME280_humidity;BME280_pressure;Samples;Min_cycle;Max_cycle;Signal;HPM_P1;HPM_P2
2022/03/14 00:02:16;;;;;;;12.93;9.30;;;;;;;;;;5054653;28;20422;-63
2022/03/14 00:04:42;;;;;;;11.27;9.03;;;;;;;;;;5054396;28;20960;-64
2022/03/14 00:07:08;;;;;;;16.90;9.90;;;;;;;;;;5054678;28;20471;-63
2022/03/14 00:09:34;;;;;;;15.80;10.23;;;;;;;;;;5054536;28;20401;-63
2022/03/14 00:12:00;;;;;;;14.00;9.80;;;;;;;;;;5054502;28;20837;-63
2022/03/14 00:14:26;;;;;;;13.57;10.33;;;;;;;;;;5054435;28;20414;-63
2022/03/14 00:16:56;;;;;;;15.63;10.90;;;;;;;;;;5054451;28;20429;-63
2022/03/14 00:19:22;;;;;;;17.80;11.20;;;;;;;;;;5054408;28;20492;-69
2022/03/14 00:21:49;;;;;;;14.53;10.20;;;;;;;;;;5054374;28;20420;-72
2022/03/14 00:24:15;;;;;;;17.97;11.00;;;;;;;;;;5054288;28;20440;-71
2022/03/14 00:26:41;;;;;;;14.83;10.70;;;;;;;;;;5054156;28;20425;-70
2022/03/14 00:29:08;;;;;;;15.87;11.33;;;;;;;;;;5052901;28;20758;-71
2022/03/14 00:31:35;;;;;;;15.57;11.10;;;;;;;;;;5054124;28;20978;-70
2022/03/14 00:34:01;;;;;;;14.47;9.80;;;;;;;;;;5054098;28;20417;-70
2022/03/14 00:36:28;;;;;;;16.67;10.37;;;;;;;;;;5054073;28;20409;-71
2022/03/14 00:38:54;;;;;;;17.27;10.83;;;;;;;;;;5053143;28;20398;-69
2022/03/14 00:41:20;;;;;;;17.80;10.90;;;;;;;;;;5053547;28;20508;-64
2022/03/14 00:43:46;;;;;;;17.47;11.10;;;;;;;;;;5053773;28;20448;-69
2022/03/14 00:46:16;;;;;;;16.97;11.10;;;;;;;;;;5053836;28;20417;-63
2022/03/14 00:48:42;;;;;;;14.87;10.73;;;;;;;;;;5053745;28;20437;-63
2022/03/14 00:51:08;;;;;;;14.00;10.00;;;;;;;;;;5053641;28;20971;-63
2022/03/14 00:53:35;;;;;;;16.90;11.00;;;;;;;;;;5053773;28;20413;-63
2022/03/14 00:56:01;;;;;;;18.30;10.87;;;;;;;;;;5052456;28;20405;-64
2022/03/14 00:58:28;;;;;;;15.13;10.00;;;;;;;;;;5053747;28;20425;-63
2022/03/14 01:00:54;;;;;;;16.03;11.27;;;;;;;;;;5053687;28;20404;-62
2022/03/14 01:03:20;;;;;;;17.33;11.53;;;;;;;;;;5053506;28;20421;-63
2022/03/14 01:05:46;;;;;;;20.73;11.20;;;;;;;;;;5053374;28;20850;-63
2022/03/14 01:08:12;;;;;;;15.93;11.90;;;;;;;;;;5053223;28;20433;-66
2022/03/14 01:10:38;;;;;;;24.07;12.50;;;;;;;;;;5053595;28;20460;-62
2022/03/14 01:13:05;;;;;;;17.87;11.97;;;;;;;;;;5053381;28;20421;-62
2022/03/14 01:15:34;;;;;;;14.30;11.13;;;;;;;;;;5053284;28;20437;-63
2022/03/14 01:18:00;;;;;;;22.53;14.10;;;;;;;;;;5051953;28;20990;-63
2022/03/14 01:20:26;;;;;;;23.70;15.80;;;;;;;;;;5053381;28;20441;-70
2022/03/14 01:22:55;;;;;;;25.77;15.07;;;;;;;;;;5053335;28;20515;-71
2022/03/14 01:25:24;;;;;;;24.87;15.57;;;;;;;;;;5053208;28;20433;-69
2022/03/14 01:27:50;;;;;;;20.97;14.80;;;;;;;;;;5053136;28;20492;-72
2022/03/14 01:30:17;;;;;;;24.57;15.10;;;;;;;;;;5053063;28;20401;-69
2022/03/14 01:32:43;;;;;;;24.20;15.10;;;;;;;;;;5053240;28;20449;-71
2022/03/14 01:35:09;;;;;;;26.27;17.17;;;;;;;;;;5053104;28;20532;-69
2022/03/14 01:37:35;;;;;;;22.43;14.97;;;;;;;;;;5053122;28;20416;-63
2022/03/14 01:40:01;;;;;;;23.60;15.70;;;;;;;;;;5053026;28;20409;-62
2022/03/14 01:42:27;;;;;;;21.60;15.27;;;;;;;;;;5053173;28;20417;-63
2022/03/14 01:44:53;;;;;;;18.90;14.17;;;;;;;;;;5052980;28;20485;-62
2022/03/14 01:47:19;;;;;;;22.30;14.67;;;;;;;;;;5052882;28;20536;-63
2022/03/14 01:49:46;;;;;;;21.37;14.40;;;;;;;;;;5052993;28;20967;-63
2022/03/14 01:52:13;;;;;;;21.70;13.80;;;;;;;;;;5053499;28;20488;-62
2022/03/14 01:54:39;;;;;;;22.00;13.80;;;;;;;;;;5056998;28;20401;-62
2022/03/14 01:57:06;;;;;;;20.80;14.27;;;;;;;;;;5057015;28;20412;-62
2022/03/14 01:59:33;;;;;;;22.10;14.73;;;;;;;;;;5057070;28;20907;-63
2022/03/14 02:01:59;;;;;;;22.37;14.83;;;;;;;;;;5057011;28;20881;-63
2022/03/14 02:04:25;;;;;;;23.20;14.00;;;;;;;;;;5056641;28;20453;-62
2022/03/14 02:06:57;;;;;;;22.10;15.07;;;;;;;;;;5056841;28;20494;-63
2022/03/14 02:09:23;;;;;;;21.97;15.40;;;;;;;;;;5056875;28;20402;-62
2022/03/14 02:12:09;;;;;;;23.50;15.43;;;;;;;;;;5056729;28;20468;-63
2022/03/14 02:14:39;;;;;;;20.10;14.33;;;;;;;;;;5056517;28;20475;-63
2022/03/14 02:17:05;;;;;;;21.00;13.53;;;;;;;;;;5056665;28;20901;-66
2022/03/14 02:19:32;;;;;;;23.10;15.37;;;;;;;;;;5056643;28;20425;-71
2022/03/14 02:21:58;;;;;;;24.57;14.63;;;;;;;;;;5056683;28;20464;-71
2022/03/14 02:24:28;;;;;;;20.23;13.73;;;;;;;;;;5056539;28;20505;-71
2022/03/14 02:26:54;;;;;;;21.60;14.43;;;;;;;;;;5056512;28;20393;-70
2022/03/14 02:29:20;;;;;;;19.57;13.43;;;;;;;;;;5056451;28;20417;-71
2022/03/14 02:31:47;;;;;;;20.60;14.40;;;;;;;;;;5056280;28;20983;-71
2022/03/14 02:34:13;;;;;;;23.93;14.27;;;;;;;;;;5056459;28;20417;-71
2022/03/14 02:36:39;;;;;;;21.40;15.03;;;;;;;;;;5056251;28;20428;-69
2022/03/14 02:39:08;;;;;;;26.07;15.07;;;;;;;;;;5056213;28;20452;-70
2022/03/14 02:41:34;;;;;;;21.17;14.73;;;;;;;;;;5056211;28;20412;-71
2022/03/14 02:44:06;;;;;;;20.90;14.07;;;;;;;;;;5054910;28;20766;-71
2022/03/14 02:46:37;;;;;;;19.60;13.83;;;;;;;;;;5056199;28;20473;-71
2022/03/14 02:49:03;;;;;;;26.47;13.00;;;;;;;;;;5055943;28;20413;-63
2022/03/14 02:51:29;;;;;;;18.27;12.00;;;;;;;;;;5056083;28;20550;-62
2022/03/14 02:53:57;;;;;;;16.33;10.97;;;;;;;;;;5056015;28;20409;-62
2022/03/14 02:56:23;;;;;;;17.93;12.10;;;;;;;;;;5055849;28;20410;-62
2022/03/14 02:58:51;;;;;;;16.90;10.30;;;;;;;;;;5055952;28;20401;-63
2022/03/14 03:01:17;;;;;;;15.07;10.00;;;;;;;;;;5055844;28;20438;-63
2022/03/14 03:03:43;;;;;;;16.53;9.30;;;;;;;;;;5055384;28;20409;-63
2022/03/14 03:06:12;;;;;;;17.40;9.87;;;;;;;;;;5055643;28;20422;-63
2022/03/14 03:08:38;;;;;;;13.47;9.13;;;;;;;;;;5054259;28;20471;-64
2022/03/14 03:11:08;;;;;;;11.77;8.90;;;;;;;;;;5055582;28;20468;-66
2022/03/14 03:13:35;;;;;;;12.40;8.93;;;;;;;;;;5055553;28;20419;-63
2022/03/14 03:16:01;;;;;;;12.90;9.17;;;;;;;;;;5055585;28;20595;-63
2022/03/14 03:18:27;;;;;;;12.80;9.57;;;;;;;;;;5055279;28;20947;-64
2022/03/14 03:20:53;;;;;;;10.30;7.90;;;;;;;;;;5055568;28;20801;-64
2022/03/14 03:23:19;;;;;;;15.80;8.70;;;;;;;;;;5054213;28;20408;-63
2022/03/14 03:25:45;;;;;;;18.77;10.53;;;;;;;;;;5055379;28;20460;-63
2022/03/14 03:28:11;;;;;;;16.63;10.93;;;;;;;;;;5055155;28;20460;-63
2022/03/14 03:30:37;;;;;;;17.00;11.53;;;;;;;;;;5055046;28;20970;-64
2022/03/14 03:33:04;;;;;;;17.17;10.17;;;;;;;;;;5055317;28;20410;-63
2022/03/14 03:35:30;;;;;;;16.13;10.30;;;;;;;;;;5055131;28;20912;-64
2022/03/14 03:37:56;;;;;;;14.50;9.30;;;;;;;;;;5055085;28;20989;-65
2022/03/14 03:40:22;;;;;;;12.90;10.03;;;;;;;;;;5053866;28;20465;-63
2022/03/14 03:42:48;;;;;;;15.17;9.63;;;;;;;;;;5055090;28;20398;-65
2022/03/14 03:45:14;;;;;;;15.30;9.47;;;;;;;;;;5054985;28;20398;-64
2022/03/14 03:47:43;;;;;;;15.27;8.77;;;;;;;;;;5054667;28;20520;-64
2022/03/14 03:50:09;;;;;;;13.13;9.47;;;;;;;;;;5054733;28;20430;-63
2022/03/14 03:52:35;;;;;;;12.70;8.63;;;;;;;;;;5053702;28;20428;-63
2022/03/14 03:55:01;;;;;;;12.80;9.37;;;;;;;;;;5054707;28;20397;-63
2022/03/14 03:57:27;;;;;;;11.20;7.87;;;;;;;;;;5054803;28;20433;-63
2022/03/14 03:59:53;;;;;;;13.73;8.27;;;;;;;;;;5054735;28;20888;-63
2022/03/14 04:02:19;;;;;;;10.83;7.67;;;;;;;;;;5054554;28;20401;-63
2022/03/14 04:04:49;;;;;;;12.97;8.10;;;;;;;;;;5054317;28;20457;-63
2022/03/14 04:07:19;;;;;;;12.33;7.97;;;;;;;;;;5054430;28;20425;-63
2022/03/14 04:09:50;;;;;;;10.27;7.30;;;;;;;;;;5053294;28;20420;-63
2022/03/14 04:12:16;;;;;;;12.50;7.50;;;;;;;;;;5054377;28;20465;-64
2022/03/14 04:14:43;;;;;;;11.33;8.00;;;;;;;;;;5053769;28;20412;-64
2022/03/14 04:17:09;;;;;;;13.07;8.53;;;;;;;;;;5053986;28;20508;-63
2022/03/14 04:19:38;;;;;;;11.67;8.20;;;;;;;;;;5054344;28;20422;-63
2022/03/14 04:22:04;;;;;;;12.33;7.60;;;;;;;;;;5054224;28;20422;-63
2022/03/14 04:24:30;;;;;;;11.50;7.20;;;;;;;;;;5054101;28;20442;-63
2022/03/14 04:26:57;;;;;;;7.90;6.03;;;;;;;;;;5054010;28;20429;-63
2022/03/14 04:29:23;;;;;;;8.40;6.10;;;;;;;;;;5054217;28;20869;-63
2022/03/14 04:31:49;;;;;;;10.23;6.47;;;;;;;;;;5054034;28;20455;-63
2022/03/14 04:34:15;;;;;;;10.67;6.33;;;;;;;;;;5054042;28;20459;-64
2022/03/14 04:36:41;;;;;;;8.50;6.50;;;;;;;;;;5053973;28;20758;-66
2022/03/14 04:39:07;;;;;;;7.53;5.70;;;;;;;;;;5053974;28;20484;-63
2022/03/14 04:41:37;;;;;;;7.10;5.40;;;;;;;;;;5053904;28;20417;-64
2022/03/14 04:44:05;;;;;;;7.13;5.50;;;;;;;;;;5053904;28;20377;-63
2022/03/14 04:46:31;;;;;;;7.73;5.20;;;;;;;;;;5053867;28;20451;-64
2022/03/14 04:48:57;;;;;;;6.57;5.10;;;;;;;;;;5053584;28;20433;-72
2022/03/14 04:51:23;;;;;;;7.97;5.27;;;;;;;;;;5053606;28;20472;-71
2022/03/14 04:53:49;;;;;;;5.20;4.17;;;;;;;;;;5053680;28;20454;-72
2022/03/14 04:56:15;;;;;;;5.77;3.30;;;;;;;;;;5053620;28;20500;-72
2022/03/14 04:58:41;;;;;;;4.27;3.33;;;;;;;;;;5053616;28;20405;-71
2022/03/14 05:01:07;;;;;;;2.90;2.70;;;;;;;;;;5052365;28;20477;-72
2022/03/14 05:03:34;;;;;;;4.73;3.40;;;;;;;;;;5053596;28;20410;-72
2022/03/14 05:06:00;;;;;;;3.80;2.87;;;;;;;;;;5053174;28;20472;-63
2022/03/14 05:08:26;;;;;;;3.00;2.70;;;;;;;;;;5053359;28;20414;-71
2022/03/14 05:10:52;;;;;;;3.23;2.07;;;;;;;;;;5053428;28;20468;-70
2022/03/14 05:13:20;;;;;;;2.10;1.90;;;;;;;;;;5053452;28;20901;-72
2022/03/14 05:15:46;;;;;;;1.60;1.40;;;;;;;;;;5053343;28;20397;-71
2022/03/14 05:18:12;;;;;;;1.67;1.57;;;;;;;;;;5053184;28;20501;-72
2022/03/14 05:20:39;;;;;;;1.40;1.30;;;;;;;;;;5053235;28;20404;-72
2022/03/14 05:23:05;;;;;;;2.03;1.90;;;;;;;;;;5056207;28;20429;-66
2022/03/14 05:25:31;;;;;;;1.90;1.40;;;;;;;;;;5032790;28;20430;-64
2022/03/14 05:27:57;;;;;;;1.67;1.57;;;;;;;;;;5032415;28;20425;-63
2022/03/14 05:30:24;;;;;;;2.57;2.10;;;;;;;;;;5032173;28;20764;-63
2022/03/14 05:32:51;;;;;;;2.00;1.63;;;;;;;;;;5032900;28;20422;-63
2022/03/14 05:35:17;;;;;;;1.87;1.50;;;;;;;;;;5033099;28;20418;-64
2022/03/14 05:37:44;;;;;;;1.70;1.30;;;;;;;;;;5033108;28;20454;-64
2022/03/14 05:40:15;;;;;;;1.30;1.20;;;;;;;;;;5031862;28;20414;-66
2022/03/14 05:42:41;;;;;;;1.10;1.00;;;;;;;;;;5033137;28;20407;-63
2022/03/14 05:45:08;;;;;;;1.10;1.00;;;;;;;;;;5033066;28;20406;-70
2022/03/14 05:47:35;;;;;;;0.80;0.80;;;;;;;;;;5032940;28;20949;-64
2022/03/14 05:50:01;;;;;;;1.17;1.07;;;;;;;;;;5033195;28;20410;-69
2022/03/14 05:52:27;;;;;;;1.50;1.13;;;;;;;;;;5032847;28;20484;-63
2022/03/14 05:54:53;;;;;;;0.80;0.80;;;;;;;;;;5032857;28;20424;-61
2022/03/14 05:57:20;;;;;;;0.97;0.97;;;;;;;;;;5032864;28;20469;-65
2022/03/14 05:59:46;;;;;;;1.10;1.00;;;;;;;;;;5032821;28;20909;-63
2022/03/14 06:02:12;;;;;;;1.20;1.10;;;;;;;;;;5032806;28;20422;-64
2022/03/14 06:04:39;;;;;;;1.10;1.00;;;;;;;;;;5032732;28;20458;-65
2022/03/14 06:07:06;;;;;;;1.30;1.10;;;;;;;;;;5032721;28;20480;-63
2022/03/14 06:09:32;;;;;;;1.17;1.10;;;;;;;;;;5032931;28;20425;-63
2022/03/14 06:11:58;;;;;;;1.30;1.20;;;;;;;;;;5032721;28;20478;-62
2022/03/14 06:14:24;;;;;;;1.33;1.23;;;;;;;;;;5032803;28;20394;-64
2022/03/14 06:16:50;;;;;;;1.30;1.20;;;;;;;;;;5032793;28;20775;-66
2022/03/14 06:19:16;;;;;;;0.90;0.90;;;;;;;;;;5032502;28;20433;-63
2022/03/14 06:21:42;;;;;;;2.00;1.10;;;;;;;;;;5032732;28;20399;-63
2022/03/14 06:24:11;;;;;;;1.23;1.13;;;;;;;;;;5031466;28;20426;-66
2022/03/14 06:26:37;;;;;;;1.77;1.10;;;;;;;;;;5032545;28;20399;-63
2022/03/14 06:29:03;;;;;;;0.93;0.87;;;;;;;;;;5032707;28;20411;-62
2022/03/14 06:31:31;;;;;;;1.00;0.93;;;;;;;;;;5032601;28;20474;-64
2022/03/14 06:33:57;;;;;;;0.87;0.87;;;;;;;;;;5032585;28;20412;-63
2022/03/14 06:36:24;;;;;;;1.37;0.80;;;;;;;;;;5032665;28;20406;-65
2022/03/14 06:38:51;;;;;;;2.20;1.00;;;;;;;;;;5034052;28;20422;-64
2022/03/14 06:41:19;;;;;;;3.37;1.40;;;;;;;;;;5036375;28;20415;-63
2022/03/14 06:43:45;;;;;;;1.93;1.23;;;;;;;;;;5036180;28;20406;-62
2022/03/14 06:46:11;;;;;;;1.20;1.00;;;;;;;;;;5036251;28;20421;-64
2022/03/14 06:48:40;;;;;;;1.87;0.87;;;;;;;;;;5035849;28;20433;-68
2022/03/14 06:51:06;;;;;;;1.47;1.23;;;;;;;;;;5035938;28;20569;-69
2022/03/14 06:53:32;;;;;;;2.07;1.03;;;;;;;;;;5036163;28;20407;-63
2022/03/14 06:55:59;;;;;;;1.73;1.10;;;;;;;;;;5035953;28;20498;-62
2022/03/14 06:58:25;;;;;;;1.37;1.27;;;;;;;;;;5036184;28;20403;-63
2022/03/14 07:00:51;;;;;;;1.30;1.00;;;;;;;;;;5035928;28;20735;-63
2022/03/14 07:03:17;;;;;;;2.63;1.40;;;;;;;;;;5035786;28;20408;-65
2022/03/14 07:05:43;;;;;;;2.90;1.20;;;;;;;;;;5035640;28;20489;-64
2022/03/14 07:08:10;;;;;;;1.17;1.07;;;;;;;;;;5035855;28;20464;-63
2022/03/14 07:10:36;;;;;;;2.13;1.30;;;;;;;;;;5035849;28;20899;-63
2022/03/14 07:13:03;;;;;;;1.30;1.20;;;;;;;;;;5035719;28;20421;-65
2022/03/14 07:15:29;;;;;;;2.13;1.93;;;;;;;;;;5035626;28;20403;-63
2022/03/14 07:17:55;;;;;;;1.73;1.50;;;;;;;;;;5034475;28;20438;-64
2022/03/14 07:20:23;;;;;;;3.37;1.23;;;;;;;;;;5035536;28;20763;-67
2022/03/14 07:22:50;;;;;;;2.23;1.60;;;;;;;;;;5035676;28;20411;-64
2022/03/14 07:25:25;;;;;;;3.03;1.47;;;;;;;;;;5034249;28;20410;-64
2022/03/14 07:27:52;;;;;;;1.40;1.23;;;;;;;;;;5035469;28;20422;-67
2022/03/14 07:30:18;;;;;;;1.13;1.03;;;;;;;;;;5035365;28;20975;-64
2022/03/14 07:32:44;;;;;;;1.50;1.20;;;;;;;;;;5034302;28;20438;-65
2022/03/14 07:35:10;;;;;;;1.73;1.07;;;;;;;;;;5035368;28;20762;-73
2022/03/14 07:37:37;;;;;;;1.00;0.90;;;;;;;;;;5035331;28;20410;-72
2022/03/14 07:40:03;;;;;;;2.20;1.07;;;;;;;;;;5035301;28;20414;-65
2022/03/14 07:42:29;;;;;;;1.10;0.93;;;;;;;;;;5035375;28;20418;-71
2022/03/14 07:44:55;;;;;;;1.03;0.93;;;;;;;;;;5035258;28;20406;-66
2022/03/14 07:47:23;;;;;;;1.67;1.43;;;;;;;;;;5034999;28;20438;-65
2022/03/14 07:49:49;;;;;;;1.93;0.97;;;;;;;;;;5034092;28;20457;-69
2022/03/14 07:52:15;;;;;;;2.60;1.10;;;;;;;;;;5033495;28;20920;-63
2022/03/14 07:54:41;;;;;;;4.20;0.97;;;;;;;;;;5034978;28;20421;-73
2022/03/14 07:57:07;;;;;;;1.83;1.00;;;;;;;;;;5034947;28;20505;-63
2022/03/14 07:59:33;;;;;;;3.13;1.03;;;;;;;;;;5034886;28;20420;-63
2022/03/14 08:02:00;;;;;;;2.00;1.23;;;;;;;;;;5034897;28;20398;-63
2022/03/14 08:04:26;;;;;;;1.93;0.93;;;;;;;;;;5034585;28;20454;-66
2022/03/14 08:06:52;;;;;;;1.40;0.90;;;;;;;;;;5034566;28;20959;-63
2022/03/14 08:09:21;;;;;;;1.67;1.00;;;;;;;;;;5034818;28;20407;-65
2022/03/14 08:11:47;;;;;;;1.93;1.00;;;;;;;;;;5034632;28;20474;-64
2022/03/14 08:14:14;;;;;;;2.70;0.90;;;;;;;;;;5034513;28;20845;-63
2022/03/14 08:16:40;;;;;;;3.37;0.90;;;;;;;;;;5034649;28;20414;-65
2022/03/14 08:19:06;;;;;;;5.57;1.57;;;;;;;;;;5033256;28;20439;-68
2022/03/14 08:21:33;;;;;;;3.17;0.90;;;;;;;;;;5034423;28;20456;-64
2022/03/14 08:23:59;;;;;;;3.53;1.20;;;;;;;;;;5034421;28;20751;-63
2022/03/14 08:26:25;;;;;;;2.00;1.03;;;;;;;;;;5034379;28;20906;-63
2022/03/14 08:28:51;;;;;;;1.93;0.90;;;;;;;;;;5034147;28;20438;-63
2022/03/14 08:31:18;;;;;;;2.00;1.10;;;;;;;;;;5034185;28;20477;-68
2022/03/14 08:33:45;;;;;;;2.23;0.90;;;;;;;;;;5034189;28;20398;-63
2022/03/14 08:36:11;;;;;;;2.30;1.17;;;;;;;;;;5032963;28;20953;-63
2022/03/14 08:38:38;;;;;;;5.33;1.13;;;;;;;;;;5034213;28;20493;-64
2022/03/14 08:41:04;;;;;;;1.20;0.80;;;;;;;;;;5032864;28;20424;-63
2022/03/14 08:43:30;;;;;;;3.27;1.10;;;;;;;;;;5034122;28;20460;-65
2022/03/14 08:45:56;;;;;;;2.90;1.17;;;;;;;;;;5034024;28;20489;-65
2022/03/14 08:48:22;;;;;;;3.33;1.13;;;;;;;;;;5033885;28;21050;-64
2022/03/14 08:50:48;;;;;;;3.37;1.07;;;;;;;;;;5033829;28;20505;-64
2022/03/14 08:53:16;;;;;;;4.17;1.30;;;;;;;;;;5033946;28;20447;-64
2022/03/14 08:55:42;;;;;;;2.03;0.97;;;;;;;;;;5033917;28;20950;-64
2022/03/14 08:58:08;;;;;;;4.73;1.77;;;;;;;;;;5033688;28;20446;-63
2022/03/14 09:00:34;;;;;;;2.23;1.20;;;;;;;;;;5033714;28;20413;-64
2022/03/14 09:03:00;;;;;;;2.40;1.00;;;;;;;;;;5033518;28;20469;-64
2022/03/14 09:05:26;;;;;;;2.23;1.10;;;;;;;;;;5033426;28;20485;-64
2022/03/14 09:07:52;;;;;;;2.33;0.93;;;;;;;;;;5033506;28;20440;-64
2022/03/14 09:10:19;;;;;;;1.90;1.20;;;;;;;;;;5033537;28;20406;-65
2022/03/14 09:12:45;;;;;;;4.73;1.20;;;;;;;;;;5033579;28;20433;-63
2022/03/14 09:15:12;;;;;;;4.70;1.40;;;;;;;;;;5033522;28;20407;-64
2022/03/14 09:17:48;;;;;;;1.90;1.30;;;;;;;;;;5033604;28;20800;-65
2022/03/14 09:20:15;;;;;;;3.70;1.30;;;;;;;;;;5033490;28;20772;-64
2022/03/14 09:22:43;;;;;;;2.60;1.30;;;;;;;;;;5033402;28;20473;-64
2022/03/14 09:25:09;;;;;;;4.77;0.83;;;;;;;;;;5033259;28;20425;-65
2022/03/14 09:27:35;;;;;;;3.90;1.30;;;;;;;;;;5033291;28;20953;-63
2022/03/14 09:30:01;;;;;;;4.47;1.60;;;;;;;;;;5033342;28;20414;-63
2022/03/14 09:32:27;;;;;;;3.17;1.13;;;;;;;;;;5033222;28;20516;-66
2022/03/14 09:34:53;;;;;;;2.90;1.03;;;;;;;;;;5033191;28;20967;-64
2022/03/14 09:37:20;;;;;;;2.80;1.10;;;;;;;;;;5033309;28;20418;-63
2022/03/14 09:39:46;;;;;;;1.80;0.90;;;;;;;;;;5033245;28;20490;-65
2022/03/14 09:42:12;;;;;;;2.50;1.00;;;;;;;;;;5031957;28;20451;-65
2022/03/14 09:44:40;;;;;;;5.17;1.13;;;;;;;;;;5032975;28;20418;-63
2022/03/14 09:47:06;;;;;;;3.40;1.10;;;;;;;;;;5032812;28;20406;-65
2022/03/14 09:49:34;;;;;;;3.13;1.10;;;;;;;;;;5033002;28;20426;-64
2022/03/14 09:52:01;;;;;;;3.40;1.73;;;;;;;;;;5032930;28;20470;-64
2022/03/14 09:54:27;;;;;;;5.37;1.33;;;;;;;;;;5032924;28;20415;-63
2022/03/14 09:56:57;;;;;;;4.87;1.40;;;;;;;;;;5032982;28;20394;-64
2022/03/14 09:59:24;;;;;;;3.90;1.20;;;;;;;;;;5033083;28;20449;-63
2022/03/14 10:01:51;;;;;;;2.27;0.93;;;;;;;;;;5033056;28;20398;-64
2022/03/14 10:04:17;;;;;;;3.43;1.10;;;;;;;;;;5032551;28;21008;-63
2022/03/14 10:06:44;;;;;;;3.07;1.27;;;;;;;;;;5032798;28;20514;-63
2022/03/14 10:09:10;;;;;;;2.50;1.00;;;;;;;;;;5032786;28;20810;-64
2022/03/14 10:11:36;;;;;;;3.00;1.20;;;;;;;;;;5032696;28;20536;-67
2022/03/14 10:14:04;;;;;;;4.10;1.50;;;;;;;;;;5034848;28;20473;-64
2022/03/14 10:16:30;;;;;;;2.63;0.80;;;;;;;;;;5036744;28;20941;-65
2022/03/14 10:18:58;;;;;;;3.70;1.57;;;;;;;;;;5036739;28;20432;-65
2022/03/14 10:21:38;;;;;;;3.17;1.03;;;;;;;;;;5036663;28;20878;-65
2022/03/14 10:24:05;;;;;;;5.57;0.93;;;;;;;;;;5035482;28;20763;-64
2022/03/14 10:26:33;;;;;;;2.53;1.13;;;;;;;;;;5036767;28;20508;-64
2022/03/14 10:28:59;;;;;;;2.50;1.00;;;;;;;;;;5036440;28;20406;-64
2022/03/14 10:31:29;;;;;;;3.00;1.40;;;;;;;;;;5036549;28;20470;-67
2022/03/14 10:34:21;;;;;;;3.07;1.20;;;;;;;;;;5036556;28;20829;-66
2022/03/14 10:36:51;;;;;;;1.80;1.17;;;;;;;;;;5036241;28;20433;-64
2022/03/14 10:39:18;;;;;;;4.97;1.10;;;;;;;;;;5036452;28;20402;-64
2022/03/14 10:41:48;;;;;;;5.93;1.43;;;;;;;;;;5036306;28;20777;-64
2022/03/14 10:44:22;;;;;;;3.33;1.40;;;;;;;;;;5036261;28;20478;-67
2022/03/14 10:46:48;;;;;;;1.80;1.20;;;;;;;;;;5036217;28;20497;-68
2022/03/14 10:49:15;;;;;;;2.73;1.33;;;;;;;;;;5036228;28;20433;-64
2022/03/14 10:51:52;;;;;;;1.50;0.97;;;;;;;;;;5036119;28;20535;-63
2022/03/14 10:54:18;;;;;;;2.30;1.07;;;;;;;;;;5034973;28;20425;-64
2022/03/14 10:56:59;;;;;;;2.63;1.37;;;;;;;;;;5034984;28;20451;-65
2022/03/14 10:59:42;;;;;;;2.70;1.50;;;;;;;;;;5036230;28;20422;-64
2022/03/14 11:02:09;;;;;;;1.20;1.10;;;;;;;;;;5035958;28;20413;-63
2022/03/14 11:04:50;;;;;;;2.53;1.50;;;;;;;;;;5035723;28;20524;-63
2022/03/14 11:07:17;;;;;;;2.53;1.10;;;;;;;;;;5035745;28;20422;-63
2022/03/14 11:09:47;;;;;;;1.33;1.20;;;;;;;;;;5035759;28;20717;-63
2022/03/14 11:12:15;;;;;;;2.10;1.27;;;;;;;;;;5035645;28;20487;-63
2022/03/14 11:14:41;;;;;;;1.53;1.40;;;;;;;;;;5035734;28;20841;-63
2022/03/14 11:17:15;;;;;;;1.40;1.20;;;;;;;;;;5035732;28;20427;-63
2022/03/14 11:19:41;;;;;;;2.13;1.00;;;;;;;;;;5035608;28;20499;-67
2022/03/14 11:22:12;;;;;;;1.83;1.20;;;;;;;;;;5035507;28;20405;-63
2022/03/14 11:24:42;;;;;;;1.77;1.13;;;;;;;;;;5035407;28;20391;-65
2022/03/14 11:27:11;;;;;;;1.10;0.97;;;;;;;;;;5035279;28;20405;-63
2022/03/14 11:29:37;;;;;;;1.57;1.03;;;;;;;;;;5035333;28;20402;-64
2022/03/14 11:32:04;;;;;;;3.90;1.00;;;;;;;;;;5035335;28;20505;-64
2022/03/14 11:34:31;;;;;;;2.00;1.00;;;;;;;;;;5035189;28;20414;-66
2022/03/14 11:36:58;;;;;;;2.03;1.27;;;;;;;;;;5035214;28;20457;-64
2022/03/14 11:39:26;;;;;;;3.20;1.47;;;;;;;;;;5035300;28;20890;-64
2022/03/14 11:41:53;;;;;;;3.07;1.40;;;;;;;;;;5035328;28;20906;-68
2022/03/14 11:44:19;;;;;;;5.13;1.30;;;;;;;;;;5035313;28;20406;-63
2022/03/14 11:46:45;;;;;;;3.17;1.73;;;;;;;;;;5035093;28;20421;-63
2022/03/14 11:49:15;;;;;;;2.10;1.00;;;;;;;;;;5035198;28;20418;-65
2022/03/14 11:51:42;;;;;;;1.73;1.37;;;;;;;;;;5035141;28;20470;-64
2022/03/14 11:54:12;;;;;;;3.17;1.17;;;;;;;;;;5033814;28;20476;-64
2022/03/14 11:56:38;;;;;;;3.33;1.37;;;;;;;;;;5035201;28;20394;-64
2022/03/14 11:59:11;;;;;;;3.57;1.20;;;;;;;;;;5034815;28;20493;-63
2022/03/14 12:01:50;;;;;;;3.90;1.30;;;;;;;;;;5034964;28;20398;-66
2022/03/14 12:04:28;;;;;;;1.83;1.20;;;;;;;;;;5034465;28;20571;-64
2022/03/14 12:06:57;;;;;;;2.30;1.40;;;;;;;;;;5034850;28;20404;-64
2022/03/14 12:09:26;;;;;;;2.10;1.03;;;;;;;;;;5033509;28;20426;-65
2022/03/14 12:11:52;;;;;;;3.67;1.30;;;;;;;;;;5034792;28;20891;-65
2022/03/14 12:14:34;;;;;;;2.27;1.60;;;;;;;;;;5033345;28;20418;-63
2022/03/14 12:17:07;;;;;;;2.17;1.70;;;;;;;;;;5034666;28;20908;-64
2022/03/14 12:19:38;;;;;;;0.90;0.90;;;;;;;;;;5034557;28;20469;-64
2022/03/14 12:22:06;;;;;;;1.40;1.10;;;;;;;;;;5034438;28;20486;-63
2022/03/14 12:24:38;;;;;;;3.07;1.20;;;;;;;;;;5034412;28;20820;-63
2022/03/14 12:27:18;;;;;;;1.93;1.27;;;;;;;;;;5034371;28;20482;-63
2022/03/14 12:29:44;;;;;;;2.20;1.20;;;;;;;;;;5034353;28;20410;-64
2022/03/14 12:32:29;;;;;;;4.43;1.10;;;;;;;;;;5034370;28;20482;-64
2022/03/14 12:34:57;;;;;;;1.80;0.83;;;;;;;;;;5034397;28;20900;-64
2022/03/14 12:37:25;;;;;;;1.50;1.30;;;;;;;;;;5033761;28;20412;-64
2022/03/14 12:39:52;;;;;;;2.10;1.30;;;;;;;;;;5034271;28;20399;-64
2022/03/14 12:42:22;;;;;;;1.20;0.90;;;;;;;;;;5032833;28;20422;-64
2022/03/14 12:45:08;;;;;;;1.10;0.90;;;;;;;;;;5034028;28;20403;-65
2022/03/14 12:47:40;;;;;;;2.27;1.07;;;;;;;;;;5032919;28;20784;-64
2022/03/14 12:50:06;;;;;;;2.40;1.13;;;;;;;;;;5034072;28;20472;-64
2022/03/14 12:52:32;;;;;;;1.47;1.00;;;;;;;;;;5032642;28;20928;-66
2022/03/14 12:55:17;;;;;;;1.70;0.90;;;;;;;;;;5033875;28;20448;-65
2022/03/14 12:57:44;;;;;;;3.90;0.97;;;;;;;;;;5033789;28;20417;-65
2022/03/14 13:00:10;;;;;;;1.50;0.90;;;;;;;;;;5033889;28;20409;-65
2022/03/14 13:02:36;;;;;;;2.30;1.13;;;;;;;;;;5033801;28;20469;-64
2022/03/14 13:05:03;;;;;;;1.20;0.80;;;;;;;;;;5033411;28;20461;-63
2022/03/14 13:07:30;;;;;;;1.07;0.90;;;;;;;;;;5033669;28;20434;-65
2022/03/14 13:09:57;;;;;;;1.30;0.87;;;;;;;;;;5033773;28;20414;-66
2022/03/14 13:12:23;;;;;;;2.60;1.10;;;;;;;;;;5033463;28;20466;-68
2022/03/14 13:14:49;;;;;;;1.03;0.80;;;;;;;;;;5033494;28;20402;-64
2022/03/14 13:17:25;;;;;;;1.73;1.10;;;;;;;;;;5033339;28;20951;-67
2022/03/14 13:19:52;;;;;;;1.60;0.97;;;;;;;;;;5033525;28;20409;-65
2022/03/14 13:22:20;;;;;;;4.40;1.13;;;;;;;;;;5032166;28;20430;-63
2022/03/14 13:24:46;;;;;;;2.03;1.10;;;;;;;;;;5033328;28;20422;-65
2022/03/14 13:27:13;;;;;;;3.10;1.30;;;;;;;;;;5033352;28;20407;-63
2022/03/14 13:29:43;;;;;;;2.60;0.87;;;;;;;;;;5033344;28;20508;-65
2022/03/14 13:32:16;;;;;;;3.07;1.27;;;;;;;;;;5033168;28;20509;-67
2022/03/14 13:34:43;;;;;;;2.17;0.80;;;;;;;;;;5033186;28;20410;-63
2022/03/14 13:37:10;;;;;;;3.83;1.00;;;;;;;;;;5033168;28;20422;-65
2022/03/14 13:39:36;;;;;;;2.57;1.20;;;;;;;;;;5033096;28;20882;-65
2022/03/14 13:42:04;;;;;;;1.43;1.33;;;;;;;;;;5033253;28;20429;-64
2022/03/14 13:44:31;;;;;;;1.20;1.10;;;;;;;;;;5033269;28;20549;-63
2022/03/14 13:46:58;;;;;;;3.43;1.13;;;;;;;;;;5032945;28;20426;-64
2022/03/14 13:49:28;;;;;;;1.83;1.13;;;;;;;;;;5032278;28;20403;-64
2022/03/14 13:51:55;;;;;;;1.63;0.80;;;;;;;;;;5032972;28;20494;-64
2022/03/14 13:54:24;;;;;;;2.17;1.30;;;;;;;;;;5033046;28;20827;-65
2022/03/14 13:56:51;;;;;;;2.80;1.23;;;;;;;;;;5033014;28;20506;-66
2022/03/14 13:59:27;;;;;;;3.43;1.13;;;;;;;;;;5033052;28;20410;-64
2022/03/14 14:02:12;;;;;;;2.07;1.10;;;;;;;;;;5032997;28;20417;-66
2022/03/14 14:04:42;;;;;;;2.60;1.00;;;;;;;;;;5031469;28;20465;-68
2022/03/14 14:07:14;;;;;;;3.07;1.37;;;;;;;;;;5032833;28;20419;-64
2022/03/14 14:09:41;;;;;;;5.17;1.20;;;;;;;;;;5032882;28;20407;-63
2022/03/14 14:12:16;;;;;;;4.10;1.20;;;;;;;;;;5032770;28;20485;-67
2022/03/14 14:14:46;;;;;;;2.93;1.10;;;;;;;;;;5032911;28;20445;-65
2022/03/14 14:17:17;;;;;;;2.50;1.30;;;;;;;;;;5031633;28;20517;-68
2022/03/14 14:20:15;;;;;;;2.23;1.00;;;;;;;;;;5032924;28;20489;-67
2022/03/14 14:23:01;;;;;;;3.43;1.20;;;;;;;;;;5031649;28;20441;-63
2022/03/14 14:25:31;;;;;;;2.30;1.00;;;;;;;;;;5032909;28;20405;-64
2022/03/14 14:27:59;;;;;;;2.63;1.40;;;;;;;;;;5032813;28;20429;-63
2022/03/14 14:30:39;;;;;;;2.60;1.30;;;;;;;;;;5032745;28;20465;-65
2022/03/14 14:33:10;;;;;;;2.70;1.30;;;;;;;;;;5032644;28;20441;-63
2022/03/14 14:35:38;;;;;;;3.90;1.27;;;;;;;;;;5032606;28;20890;-65
2022/03/14 14:38:05;;;;;;;3.20;1.30;;;;;;;;;;5032721;28;20458;-69
2022/03/14 14:40:31;;;;;;;2.27;1.00;;;;;;;;;;5032683;28;20738;-63